sensor_id;sensor_type;location;lat;lon;timestamp;P1;durP1;ratioP1;P2;durP2;ratioP2
41572;SDS011;27286;47.870;19.006;2024-02-14T00:00:32;5.32;;;0.90;;
41572;SDS011;27286;47.870;19.006;2024-02-14T00:02:57;3.70;;;1.08;;
41572;SDS011;27286;47.870;19.006;2024-02-14T00:05:23;4.50;;;1.42;;
41572;SDS011;27286;47.870;19.006;2024-02-14T00:07:48;1.75;;;0.82;;
41572;SDS011;27286;47.870;19.006;2024-02-14T00:10:13;3.75;;;1.20;;
41572;SDS011;27286;47.870;19.006;2024-02-14T00:12:39;3.28;;;1.35;;
41572;SDS011;27286;47.870;19.006;2024-02-14T00:15:05;3.10;;;1.42;;
41572;SDS011;27286;47.870;19.006;2024-02-14T00:17:32;2.50;;;0.73;;
41572;SDS011;27286;47.870;19.006;2024-02-14T00:19:59;11.57;;;1.58;;
41572;SDS011;27286;47.870;19.006;2024-02-14T00:22:25;4.93;;;1.02;;
41572;SDS011;27286;47.870;19.006;2024-02-14T00:24:50;4.32;;;1.20;;
41572;SDS011;27286;47.870;19.006;2024-02-14T00:27:15;3.75;;;1.42;;
41572;SDS011;27286;47.870;19.006;2024-02-14T00:29:42;3.08;;;1.20;;
41572;SDS011;27286;47.870;19.006;2024-02-14T00:32:10;3.35;;;1.38;;
41572;SDS011;27286;47.870;19.006;2024-02-14T00:34:35;2.15;;;0.70;;
41572;SDS011;27286;47.870;19.006;2024-02-14T00:37:01;2.22;;;1.02;;
41572;SDS011;27286;47.870;19.006;2024-02-14T00:39:26;3.17;;;1.10;;
41572;SDS011;27286;47.870;19.006;2024-02-14T00:41:51;4.03;;;1.23;;
41572;SDS011;27286;47.870;19.006;2024-02-14T00:44:18;2.50;;;0.90;;
41572;SDS011;27286;47.870;19.006;2024-02-14T00:46:44;4.15;;;0.90;;
41572;SDS011;27286;47.870;19.006;2024-02-14T00:49:10;3.35;;;1.02;;
41572;SDS011;27286;47.870;19.006;2024-02-14T00:51:36;2.80;;;1.10;;
41572;SDS011;27286;47.870;19.006;2024-02-14T00:54:03;2.65;;;0.90;;
41572;SDS011;27286;47.870;19.006;2024-02-14T00:56:29;3.00;;;1.02;;
41572;SDS011;27286;47.870;19.006;2024-02-14T00:58:54;2.50;;;1.13;;
41572;SDS011;27286;47.870;19.006;2024-02-14T01:01:19;3.92;;;1.00;;
41572;SDS011;27286;47.870;19.006;2024-02-14T01:03:45;4.28;;;1.10;;
41572;SDS011;27286;47.870;19.006;2024-02-14T01:06:10;4.35;;;1.20;;
41572;SDS011;27286;47.870;19.006;2024-02-14T01:08:36;2.20;;;0.75;;
41572;SDS011;27286;47.870;19.006;2024-02-14T01:11:01;3.45;;;0.90;;
41572;SDS011;27286;47.870;19.006;2024-02-14T01:13:27;6.72;;;1.08;;
41572;SDS011;27286;47.870;19.006;2024-02-14T01:15:52;3.13;;;1.08;;
41572;SDS011;27286;47.870;19.006;2024-02-14T01:18:18;3.72;;;1.00;;
41572;SDS011;27286;47.870;19.006;2024-02-14T01:20:43;2.53;;;1.20;;
41572;SDS011;27286;47.870;19.006;2024-02-14T01:23:08;3.13;;;1.20;;
41572;SDS011;27286;47.870;19.006;2024-02-14T01:25:34;3.38;;;0.95;;
41572;SDS011;27286;47.870;19.006;2024-02-14T01:28:00;2.65;;;0.82;;
41572;SDS011;27286;47.870;19.006;2024-02-14T01:30:26;2.92;;;0.68;;
41572;SDS011;27286;47.870;19.006;2024-02-14T01:32:51;3.60;;;1.10;;
41572;SDS011;27286;47.870;19.006;2024-02-14T01:35:18;3.90;;;1.55;;
41572;SDS011;27286;47.870;19.006;2024-02-14T01:37:43;2.42;;;0.98;;
41572;SDS011;27286;47.870;19.006;2024-02-14T01:40:10;1.65;;;0.77;;
41572;SDS011;27286;47.870;19.006;2024-02-14T01:42:36;3.28;;;1.63;;
41572;SDS011;27286;47.870;19.006;2024-02-14T01:45:01;2.22;;;1.08;;
41572;SDS011;27286;47.870;19.006;2024-02-14T01:47:28;3.00;;;1.10;;
41572;SDS011;27286;47.870;19.006;2024-02-14T01:49:54;3.30;;;1.02;;
41572;SDS011;27286;47.870;19.006;2024-02-14T01:52:19;4.75;;;1.42;;
41572;SDS011;27286;47.870;19.006;2024-02-14T01:54:46;7.05;;;2.17;;
41572;SDS011;27286;47.870;19.006;2024-02-14T01:57:12;3.78;;;1.20;;
41572;SDS011;27286;47.870;19.006;2024-02-14T01:59:38;3.40;;;1.10;;
41572;SDS011;27286;47.870;19.006;2024-02-14T02:02:04;3.60;;;1.58;;
41572;SDS011;27286;47.870;19.006;2024-02-14T02:04:33;7.45;;;1.60;;
41572;SDS011;27286;47.870;19.006;2024-02-14T02:06:59;4.60;;;1.25;;
41572;SDS011;27286;47.870;19.006;2024-02-14T02:09:25;3.78;;;1.13;;
41572;SDS011;27286;47.870;19.006;2024-02-14T02:11:51;12.32;;;1.95;;
41572;SDS011;27286;47.870;19.006;2024-02-14T02:14:21;2.90;;;1.25;;
41572;SDS011;27286;47.870;19.006;2024-02-14T02:16:47;2.20;;;1.10;;
41572;SDS011;27286;47.870;19.006;2024-02-14T02:19:14;3.20;;;1.15;;
41572;SDS011;27286;47.870;19.006;2024-02-14T02:21:41;3.15;;;1.02;;
41572;SDS011;27286;47.870;19.006;2024-02-14T02:24:09;2.95;;;0.90;;
41572;SDS011;27286;47.870;19.006;2024-02-14T02:26:34;2.38;;;0.90;;
41572;SDS011;27286;47.870;19.006;2024-02-14T02:28:59;2.17;;;0.60;;
41572;SDS011;27286;47.870;19.006;2024-02-14T02:31:25;3.20;;;0.98;;
41572;SDS011;27286;47.870;19.006;2024-02-14T02:33:51;4.13;;;1.23;;
41572;SDS011;27286;47.870;19.006;2024-02-14T02:36:17;2.08;;;0.50;;
41572;SDS011;27286;47.870;19.006;2024-02-14T02:38:42;2.22;;;0.90;;
41572;SDS011;27286;47.870;19.006;2024-02-14T02:41:08;2.65;;;0.55;;
41572;SDS011;27286;47.870;19.006;2024-02-14T02:43:34;2.33;;;1.13;;
41572;SDS011;27286;47.870;19.006;2024-02-14T02:45:59;2.28;;;0.60;;
41572;SDS011;27286;47.870;19.006;2024-02-14T02:48:25;2.17;;;0.77;;
41572;SDS011;27286;47.870;19.006;2024-02-14T02:50:51;2.97;;;0.82;;
41572;SDS011;27286;47.870;19.006;2024-02-14T02:53:17;3.00;;;0.90;;
41572;SDS011;27286;47.870;19.006;2024-02-14T02:55:42;2.53;;;1.05;;
41572;SDS011;27286;47.870;19.006;2024-02-14T02:58:08;1.58;;;0.50;;
41572;SDS011;27286;47.870;19.006;2024-02-14T03:00:33;2.22;;;0.73;;
41572;SDS011;27286;47.870;19.006;2024-02-14T03:02:59;2.70;;;0.88;;
41572;SDS011;27286;47.870;19.006;2024-02-14T03:05:25;2.20;;;0.60;;
41572;SDS011;27286;47.870;19.006;2024-02-14T03:07:50;3.05;;;0.73;;
41572;SDS011;27286;47.870;19.006;2024-02-14T03:10:17;8.23;;;1.00;;
41572;SDS011;27286;47.870;19.006;2024-02-14T03:12:47;3.97;;;1.10;;
41572;SDS011;27286;47.870;19.006;2024-02-14T03:15:13;2.83;;;0.88;;
41572;SDS011;27286;47.870;19.006;2024-02-14T03:17:39;2.10;;;0.75;;
41572;SDS011;27286;47.870;19.006;2024-02-14T03:20:05;3.55;;;1.00;;
41572;SDS011;27286;47.870;19.006;2024-02-14T03:22:42;4.63;;;1.23;;
41572;SDS011;27286;47.870;19.006;2024-02-14T03:25:12;3.30;;;0.95;;
41572;SDS011;27286;47.870;19.006;2024-02-14T03:27:41;3.67;;;1.02;;
41572;SDS011;27286;47.870;19.006;2024-02-14T03:30:07;3.15;;;0.95;;
41572;SDS011;27286;47.870;19.006;2024-02-14T03:32:32;10.20;;;2.03;;
41572;SDS011;27286;47.870;19.006;2024-02-14T03:34:58;5.25;;;2.00;;
41572;SDS011;27286;47.870;19.006;2024-02-14T03:37:27;11.75;;;1.63;;
41572;SDS011;27286;47.870;19.006;2024-02-14T03:39:52;4.25;;;1.13;;
41572;SDS011;27286;47.870;19.006;2024-02-14T03:42:18;5.03;;;1.33;;
41572;SDS011;27286;47.870;19.006;2024-02-14T03:44:44;3.00;;;1.35;;
41572;SDS011;27286;47.870;19.006;2024-02-14T03:47:10;3.33;;;1.30;;
41572;SDS011;27286;47.870;19.006;2024-02-14T03:49:37;3.08;;;0.80;;
41572;SDS011;27286;47.870;19.006;2024-02-14T03:52:03;2.08;;;0.80;;
41572;SDS011;27286;47.870;19.006;2024-02-14T03:54:34;2.75;;;0.75;;
41572;SDS011;27286;47.870;19.006;2024-02-14T03:57:01;1.25;;;0.40;;
41572;SDS011;27286;47.870;19.006;2024-02-14T03:59:26;4.68;;;1.08;;
41572;SDS011;27286;47.870;19.006;2024-02-14T04:01:51;2.03;;;0.88;;
41572;SDS011;27286;47.870;19.006;2024-02-14T04:04:18;3.35;;;0.70;;
41572;SDS011;27286;47.870;19.006;2024-02-14T04:06:44;3.15;;;0.98;;
41572;SDS011;27286;47.870;19.006;2024-02-14T04:09:10;1.48;;;0.50;;
41572;SDS011;27286;47.870;19.006;2024-02-14T04:11:36;3.70;;;1.20;;
41572;SDS011;27286;47.870;19.006;2024-02-14T04:14:01;4.60;;;1.17;;
41572;SDS011;27286;47.870;19.006;2024-02-14T04:16:27;3.45;;;0.82;;
41572;SDS011;27286;47.870;19.006;2024-02-14T04:18:52;4.10;;;1.17;;
41572;SDS011;27286;47.870;19.006;2024-02-14T04:21:20;5.75;;;1.38;;
41572;SDS011;27286;47.870;19.006;2024-02-14T04:23:45;4.07;;;1.23;;
41572;SDS011;27286;47.870;19.006;2024-02-14T04:26:17;2.83;;;0.95;;
41572;SDS011;27286;47.870;19.006;2024-02-14T04:28:44;2.95;;;0.95;;
41572;SDS011;27286;47.870;19.006;2024-02-14T04:31:09;3.75;;;1.15;;
41572;SDS011;27286;47.870;19.006;2024-02-14T04:33:34;2.50;;;1.17;;
41572;SDS011;27286;47.870;19.006;2024-02-14T04:36:00;5.97;;;1.20;;
41572;SDS011;27286;47.870;19.006;2024-02-14T04:38:26;2.33;;;0.80;;
41572;SDS011;27286;47.870;19.006;2024-02-14T04:40:51;3.47;;;0.77;;
41572;SDS011;27286;47.870;19.006;2024-02-14T04:43:17;1.88;;;0.47;;
41572;SDS011;27286;47.870;19.006;2024-02-14T04:45:43;3.25;;;0.93;;
41572;SDS011;27286;47.870;19.006;2024-02-14T04:48:08;2.05;;;0.82;;
41572;SDS011;27286;47.870;19.006;2024-02-14T04:50:33;4.35;;;0.77;;
41572;SDS011;27286;47.870;19.006;2024-02-14T04:52:59;5.22;;;1.25;;
41572;SDS011;27286;47.870;19.006;2024-02-14T04:55:24;4.97;;;1.48;;
41572;SDS011;27286;47.870;19.006;2024-02-14T04:57:50;5.35;;;1.08;;
41572;SDS011;27286;47.870;19.006;2024-02-14T05:00:15;3.80;;;0.98;;
41572;SDS011;27286;47.870;19.006;2024-02-14T05:02:41;2.45;;;0.98;;
41572;SDS011;27286;47.870;19.006;2024-02-14T05:05:06;4.75;;;1.00;;
41572;SDS011;27286;47.870;19.006;2024-02-14T05:07:33;6.13;;;1.33;;
41572;SDS011;27286;47.870;19.006;2024-02-14T05:09:59;4.47;;;0.85;;
41572;SDS011;27286;47.870;19.006;2024-02-14T05:12:24;2.53;;;1.00;;
41572;SDS011;27286;47.870;19.006;2024-02-14T05:14:50;4.35;;;1.20;;
41572;SDS011;27286;47.870;19.006;2024-02-14T05:17:15;2.60;;;1.20;;
41572;SDS011;27286;47.870;19.006;2024-02-14T05:19:41;4.15;;;0.95;;
41572;SDS011;27286;47.870;19.006;2024-02-14T05:22:08;3.85;;;1.65;;
41572;SDS011;27286;47.870;19.006;2024-02-14T05:24:33;4.15;;;1.77;;
41572;SDS011;27286;47.870;19.006;2024-02-14T05:27:03;5.13;;;1.45;;
41572;SDS011;27286;47.870;19.006;2024-02-14T05:29:29;4.75;;;2.25;;
41572;SDS011;27286;47.870;19.006;2024-02-14T05:31:54;4.00;;;1.55;;
41572;SDS011;27286;47.870;19.006;2024-02-14T05:34:20;3.20;;;1.30;;
41572;SDS011;27286;47.870;19.006;2024-02-14T05:36:46;7.45;;;1.73;;
41572;SDS011;27286;47.870;19.006;2024-02-14T05:39:11;5.13;;;1.85;;
41572;SDS011;27286;47.870;19.006;2024-02-14T05:41:37;9.93;;;2.50;;
41572;SDS011;27286;47.870;19.006;2024-02-14T05:44:03;4.72;;;2.03;;
41572;SDS011;27286;47.870;19.006;2024-02-14T05:46:28;4.30;;;1.05;;
41572;SDS011;27286;47.870;19.006;2024-02-14T05:48:54;5.63;;;1.33;;
41572;SDS011;27286;47.870;19.006;2024-02-14T05:51:20;4.40;;;2.17;;
41572;SDS011;27286;47.870;19.006;2024-02-14T05:53:46;7.30;;;1.38;;
41572;SDS011;27286;47.870;19.006;2024-02-14T05:56:11;5.05;;;1.50;;
41572;SDS011;27286;47.870;19.006;2024-02-14T05:58:36;8.23;;;2.05;;
41572;SDS011;27286;47.870;19.006;2024-02-14T06:01:02;2.88;;;1.05;;
41572;SDS011;27286;47.870;19.006;2024-02-14T06:03:27;5.85;;;0.98;;
41572;SDS011;27286;47.870;19.006;2024-02-14T06:05:53;4.15;;;1.08;;
41572;SDS011;27286;47.870;19.006;2024-02-14T06:08:19;3.35;;;1.33;;
41572;SDS011;27286;47.870;19.006;2024-02-14T06:10:45;3.80;;;1.55;;
41572;SDS011;27286;47.870;19.006;2024-02-14T06:13:11;3.28;;;1.17;;
41572;SDS011;27286;47.870;19.006;2024-02-14T06:15:36;12.75;;;5.72;;
41572;SDS011;27286;47.870;19.006;2024-02-14T06:18:01;20.05;;;8.98;;
41572;SDS011;27286;47.870;19.006;2024-02-14T06:20:27;17.80;;;9.02;;
41572;SDS011;27286;47.870;19.006;2024-02-14T06:22:52;19.90;;;8.40;;
41572;SDS011;27286;47.870;19.006;2024-02-14T06:25:19;25.30;;;11.68;;
41572;SDS011;27286;47.870;19.006;2024-02-14T06:27:45;10.52;;;4.22;;
41572;SDS011;27286;47.870;19.006;2024-02-14T06:30:19;6.45;;;2.10;;
41572;SDS011;27286;47.870;19.006;2024-02-14T06:32:44;3.75;;;1.27;;
41572;SDS011;27286;47.870;19.006;2024-02-14T06:35:10;3.63;;;1.25;;
41572;SDS011;27286;47.870;19.006;2024-02-14T06:37:35;2.45;;;1.17;;
41572;SDS011;27286;47.870;19.006;2024-02-14T06:40:01;2.38;;;1.10;;
41572;SDS011;27286;47.870;19.006;2024-02-14T06:42:26;4.30;;;1.45;;
41572;SDS011;27286;47.870;19.006;2024-02-14T06:44:51;3.70;;;1.52;;
41572;SDS011;27286;47.870;19.006;2024-02-14T06:47:17;4.82;;;1.40;;
41572;SDS011;27286;47.870;19.006;2024-02-14T06:49:43;3.85;;;1.35;;
41572;SDS011;27286;47.870;19.006;2024-02-14T06:52:08;6.85;;;1.42;;
41572;SDS011;27286;47.870;19.006;2024-02-14T06:54:34;4.88;;;1.90;;
41572;SDS011;27286;47.870;19.006;2024-02-14T06:56:59;5.40;;;2.03;;
41572;SDS011;27286;47.870;19.006;2024-02-14T06:59:25;3.60;;;1.50;;
41572;SDS011;27286;47.870;19.006;2024-02-14T07:01:51;5.97;;;2.35;;
41572;SDS011;27286;47.870;19.006;2024-02-14T07:04:19;33.58;;;16.80;;
41572;SDS011;27286;47.870;19.006;2024-02-14T07:06:50;35.95;;;18.85;;
41572;SDS011;27286;47.870;19.006;2024-02-14T07:09:18;33.10;;;16.02;;
41572;SDS011;27286;47.870;19.006;2024-02-14T07:11:44;37.85;;;17.45;;
41572;SDS011;27286;47.870;19.006;2024-02-14T07:14:11;24.88;;;14.73;;
41572;SDS011;27286;47.870;19.006;2024-02-14T07:16:36;25.10;;;12.25;;
41572;SDS011;27286;47.870;19.006;2024-02-14T07:19:02;22.58;;;11.18;;
41572;SDS011;27286;47.870;19.006;2024-02-14T07:21:27;19.65;;;9.65;;
41572;SDS011;27286;47.870;19.006;2024-02-14T07:23:53;18.55;;;9.38;;
41572;SDS011;27286;47.870;19.006;2024-02-14T07:26:18;17.85;;;9.30;;
41572;SDS011;27286;47.870;19.006;2024-02-14T07:28:44;7.05;;;4.32;;
41572;SDS011;27286;47.870;19.006;2024-02-14T07:31:09;6.85;;;3.55;;
41572;SDS011;27286;47.870;19.006;2024-02-14T07:33:35;10.57;;;4.60;;
41572;SDS011;27286;47.870;19.006;2024-02-14T07:36:00;8.15;;;4.32;;
41572;SDS011;27286;47.870;19.006;2024-02-14T07:38:25;8.98;;;3.65;;
41572;SDS011;27286;47.870;19.006;2024-02-14T07:40:51;10.38;;;3.67;;
41572;SDS011;27286;47.870;19.006;2024-02-14T07:43:17;5.25;;;2.63;;
41572;SDS011;27286;47.870;19.006;2024-02-14T07:45:43;6.00;;;3.17;;
41572;SDS011;27286;47.870;19.006;2024-02-14T07:48:08;12.00;;;7.03;;
41572;SDS011;27286;47.870;19.006;2024-02-14T07:50:34;71.55;;;37.38;;
41572;SDS011;27286;47.870;19.006;2024-02-14T07:53:00;66.88;;;34.75;;
41572;SDS011;27286;47.870;19.006;2024-02-14T07:55:26;45.95;;;25.15;;
41572;SDS011;27286;47.870;19.006;2024-02-14T07:57:52;41.17;;;21.95;;
41572;SDS011;27286;47.870;19.006;2024-02-14T08:00:18;20.88;;;13.93;;
41572;SDS011;27286;47.870;19.006;2024-02-14T08:02:47;12.50;;;8.15;;
41572;SDS011;27286;47.870;19.006;2024-02-14T08:05:13;28.52;;;16.88;;
41572;SDS011;27286;47.870;19.006;2024-02-14T08:07:38;13.18;;;7.50;;
41572;SDS011;27286;47.870;19.006;2024-02-14T08:10:04;12.13;;;6.88;;
41572;SDS011;27286;47.870;19.006;2024-02-14T08:12:30;7.47;;;3.78;;
41572;SDS011;27286;47.870;19.006;2024-02-14T08:14:55;5.47;;;3.53;;
41572;SDS011;27286;47.870;19.006;2024-02-14T08:17:21;6.80;;;3.47;;
41572;SDS011;27286;47.870;19.006;2024-02-14T08:19:46;7.15;;;4.35;;
41572;SDS011;27286;47.870;19.006;2024-02-14T08:22:13;7.82;;;4.43;;
41572;SDS011;27286;47.870;19.006;2024-02-14T08:24:38;7.43;;;4.07;;
41572;SDS011;27286;47.870;19.006;2024-02-14T08:27:04;9.70;;;5.97;;
41572;SDS011;27286;47.870;19.006;2024-02-14T08:29:32;8.63;;;5.40;;
41572;SDS011;27286;47.870;19.006;2024-02-14T08:31:57;9.07;;;4.45;;
41572;SDS011;27286;47.870;19.006;2024-02-14T08:34:23;7.45;;;4.25;;
41572;SDS011;27286;47.870;19.006;2024-02-14T08:36:49;7.82;;;4.45;;
41572;SDS011;27286;47.870;19.006;2024-02-14T08:39:14;9.43;;;5.32;;
41572;SDS011;27286;47.870;19.006;2024-02-14T08:41:39;7.20;;;5.10;;
41572;SDS011;27286;47.870;19.006;2024-02-14T08:44:09;6.68;;;4.18;;
41572;SDS011;27286;47.870;19.006;2024-02-14T08:46:35;4.50;;;3.22;;
41572;SDS011;27286;47.870;19.006;2024-02-14T08:49:00;7.82;;;4.93;;
41572;SDS011;27286;47.870;19.006;2024-02-14T08:51:36;9.88;;;6.25;;
41572;SDS011;27286;47.870;19.006;2024-02-14T08:54:02;10.65;;;5.78;;
41572;SDS011;27286;47.870;19.006;2024-02-14T08:56:30;7.80;;;5.10;;
41572;SDS011;27286;47.870;19.006;2024-02-14T08:58:58;6.07;;;3.92;;
41572;SDS011;27286;47.870;19.006;2024-02-14T09:01:26;5.68;;;4.07;;
41572;SDS011;27286;47.870;19.006;2024-02-14T09:03:51;7.97;;;4.22;;
41572;SDS011;27286;47.870;19.006;2024-02-14T09:06:17;7.13;;;3.65;;
41572;SDS011;27286;47.870;19.006;2024-02-14T09:08:46;6.35;;;4.18;;
41572;SDS011;27286;47.870;19.006;2024-02-14T09:11:12;6.22;;;4.40;;
41572;SDS011;27286;47.870;19.006;2024-02-14T09:13:38;5.32;;;3.78;;
41572;SDS011;27286;47.870;19.006;2024-02-14T09:16:05;6.35;;;3.80;;
41572;SDS011;27286;47.870;19.006;2024-02-14T09:18:32;6.00;;;3.88;;
41572;SDS011;27286;47.870;19.006;2024-02-14T09:20:58;6.38;;;3.78;;
41572;SDS011;27286;47.870;19.006;2024-02-14T09:23:23;8.93;;;4.15;;
41572;SDS011;27286;47.870;19.006;2024-02-14T09:25:49;6.75;;;3.45;;
41572;SDS011;27286;47.870;19.006;2024-02-14T09:28:17;6.07;;;4.50;;
41572;SDS011;27286;47.870;19.006;2024-02-14T09:30:43;6.75;;;4.28;;
41572;SDS011;27286;47.870;19.006;2024-02-14T09:33:08;6.22;;;4.15;;
41572;SDS011;27286;47.870;19.006;2024-02-14T09:35:34;5.40;;;3.83;;
41572;SDS011;27286;47.870;19.006;2024-02-14T09:38:02;6.07;;;3.92;;
41572;SDS011;27286;47.870;19.006;2024-02-14T09:40:28;5.70;;;4.10;;
41572;SDS011;27286;47.870;19.006;2024-02-14T09:42:54;11.10;;;4.93;;
41572;SDS011;27286;47.870;19.006;2024-02-14T09:45:26;7.82;;;5.30;;
41572;SDS011;27286;47.870;19.006;2024-02-14T09:47:54;5.75;;;4.60;;
41572;SDS011;27286;47.870;19.006;2024-02-14T09:50:21;8.45;;;3.53;;
41572;SDS011;27286;47.870;19.006;2024-02-14T09:52:49;5.90;;;3.88;;
41572;SDS011;27286;47.870;19.006;2024-02-14T09:55:15;10.57;;;4.88;;
41572;SDS011;27286;47.870;19.006;2024-02-14T09:57:41;7.65;;;3.97;;
41572;SDS011;27286;47.870;19.006;2024-02-14T10:00:11;7.78;;;3.80;;
41572;SDS011;27286;47.870;19.006;2024-02-14T10:02:39;7.10;;;3.97;;
41572;SDS011;27286;47.870;19.006;2024-02-14T10:05:05;7.70;;;5.43;;
41572;SDS011;27286;47.870;19.006;2024-02-14T10:07:39;5.05;;;3.28;;
41572;SDS011;27286;47.870;19.006;2024-02-14T10:10:06;5.85;;;3.22;;
41572;SDS011;27286;47.870;19.006;2024-02-14T10:12:32;5.13;;;3.33;;
41572;SDS011;27286;47.870;19.006;2024-02-14T10:14:57;5.57;;;3.28;;
41572;SDS011;27286;47.870;19.006;2024-02-14T10:17:23;4.93;;;3.42;;
41572;SDS011;27286;47.870;19.006;2024-02-14T10:19:58;6.30;;;4.32;;
41572;SDS011;27286;47.870;19.006;2024-02-14T10:22:24;12.75;;;8.75;;
41572;SDS011;27286;47.870;19.006;2024-02-14T10:24:50;8.70;;;4.57;;
41572;SDS011;27286;47.870;19.006;2024-02-14T10:27:16;6.18;;;4.13;;
41572;SDS011;27286;47.870;19.006;2024-02-14T10:29:41;5.57;;;2.67;;
41572;SDS011;27286;47.870;19.006;2024-02-14T10:32:09;4.57;;;2.35;;
41572;SDS011;27286;47.870;19.006;2024-02-14T10:34:34;3.60;;;2.53;;
41572;SDS011;27286;47.870;19.006;2024-02-14T10:37:02;6.90;;;2.65;;
41572;SDS011;27286;47.870;19.006;2024-02-14T10:39:31;3.85;;;1.92;;
41572;SDS011;27286;47.870;19.006;2024-02-14T10:41:59;4.53;;;2.33;;
41572;SDS011;27286;47.870;19.006;2024-02-14T10:44:25;4.50;;;1.92;;
41572;SDS011;27286;47.870;19.006;2024-02-14T10:46:52;3.30;;;1.52;;
41572;SDS011;27286;47.870;19.006;2024-02-14T10:49:19;2.65;;;1.60;;
41572;SDS011;27286;47.870;19.006;2024-02-14T10:51:45;3.13;;;1.05;;
41572;SDS011;27286;47.870;19.006;2024-02-14T10:54:14;2.05;;;0.65;;
41572;SDS011;27286;47.870;19.006;2024-02-14T10:56:42;2.85;;;0.82;;
41572;SDS011;27286;47.870;19.006;2024-02-14T10:59:09;2.35;;;0.90;;
41572;SDS011;27286;47.870;19.006;2024-02-14T11:01:38;3.28;;;0.82;;
41572;SDS011;27286;47.870;19.006;2024-02-14T11:04:05;3.97;;;1.00;;
41572;SDS011;27286;47.870;19.006;2024-02-14T11:06:31;3.60;;;0.93;;
41572;SDS011;27286;47.870;19.006;2024-02-14T11:08:57;4.55;;;1.23;;
41572;SDS011;27286;47.870;19.006;2024-02-14T11:11:29;4.82;;;1.00;;
41572;SDS011;27286;47.870;19.006;2024-02-14T11:13:58;7.25;;;1.27;;
41572;SDS011;27286;47.870;19.006;2024-02-14T11:16:26;8.13;;;0.60;;
41572;SDS011;27286;47.870;19.006;2024-02-14T11:18:53;2.92;;;0.82;;
41572;SDS011;27286;47.870;19.006;2024-02-14T11:21:45;2.67;;;0.88;;
41572;SDS011;27286;47.870;19.006;2024-02-14T11:24:12;4.32;;;1.50;;
41572;SDS011;27286;47.870;19.006;2024-02-14T11:26:47;3.60;;;1.15;;
41572;SDS011;27286;47.870;19.006;2024-02-14T11:29:17;3.58;;;1.17;;
41572;SDS011;27286;47.870;19.006;2024-02-14T11:31:46;2.47;;;0.70;;
41572;SDS011;27286;47.870;19.006;2024-02-14T11:34:16;2.58;;;0.93;;
41572;SDS011;27286;47.870;19.006;2024-02-14T11:36:42;3.65;;;0.80;;
41572;SDS011;27286;47.870;19.006;2024-02-14T11:39:08;2.50;;;1.25;;
41572;SDS011;27286;47.870;19.006;2024-02-14T11:41:33;3.05;;;1.38;;
41572;SDS011;27286;47.870;19.006;2024-02-14T11:44:03;3.70;;;1.00;;
41572;SDS011;27286;47.870;19.006;2024-02-14T11:46:30;6.47;;;1.73;;
41572;SDS011;27286;47.870;19.006;2024-02-14T11:48:56;6.65;;;1.92;;
41572;SDS011;27286;47.870;19.006;2024-02-14T11:51:22;4.57;;;1.52;;
41572;SDS011;27286;47.870;19.006;2024-02-14T11:53:47;3.45;;;0.95;;
41572;SDS011;27286;47.870;19.006;2024-02-14T11:56:14;2.90;;;1.67;;
41572;SDS011;27286;47.870;19.006;2024-02-14T11:58:40;6.47;;;1.10;;
41572;SDS011;27286;47.870;19.006;2024-02-14T12:01:07;6.00;;;1.08;;
41572;SDS011;27286;47.870;19.006;2024-02-14T12:03:34;3.88;;;1.02;;
41572;SDS011;27286;47.870;19.006;2024-02-14T12:06:00;4.82;;;1.50;;
41572;SDS011;27286;47.870;19.006;2024-02-14T12:08:27;7.05;;;2.40;;
41572;SDS011;27286;47.870;19.006;2024-02-14T12:10:53;10.73;;;3.05;;
41572;SDS011;27286;47.870;19.006;2024-02-14T12:13:21;6.57;;;1.73;;
41572;SDS011;27286;47.870;19.006;2024-02-14T12:15:47;3.20;;;1.55;;
41572;SDS011;27286;47.870;19.006;2024-02-14T12:18:15;8.77;;;1.10;;
41572;SDS011;27286;47.870;19.006;2024-02-14T12:20:43;5.50;;;1.70;;
41572;SDS011;27286;47.870;19.006;2024-02-14T12:23:13;3.95;;;1.35;;
41572;SDS011;27286;47.870;19.006;2024-02-14T12:25:39;5.50;;;2.28;;
41572;SDS011;27286;47.870;19.006;2024-02-14T12:28:05;4.25;;;1.40;;
41572;SDS011;27286;47.870;19.006;2024-02-14T12:30:44;7.30;;;2.42;;
41572;SDS011;27286;47.870;19.006;2024-02-14T12:33:14;6.35;;;2.28;;
41572;SDS011;27286;47.870;19.006;2024-02-14T12:35:46;11.50;;;3.58;;
41572;SDS011;27286;47.870;19.006;2024-02-14T12:38:13;10.68;;;3.67;;
41572;SDS011;27286;47.870;19.006;2024-02-14T12:40:40;10.15;;;5.93;;
41572;SDS011;27286;47.870;19.006;2024-02-14T12:43:09;6.60;;;1.42;;
41572;SDS011;27286;47.870;19.006;2024-02-14T12:45:38;6.95;;;2.90;;
41572;SDS011;27286;47.870;19.006;2024-02-14T12:48:08;6.93;;;2.63;;
41572;SDS011;27286;47.870;19.006;2024-02-14T12:50:34;8.60;;;3.28;;
41572;SDS011;27286;47.870;19.006;2024-02-14T12:53:00;6.93;;;3.22;;
41572;SDS011;27286;47.870;19.006;2024-02-14T12:55:27;5.13;;;3.08;;
41572;SDS011;27286;47.870;19.006;2024-02-14T12:57:53;5.60;;;3.50;;
41572;SDS011;27286;47.870;19.006;2024-02-14T13:00:20;9.20;;;3.03;;
41572;SDS011;27286;47.870;19.006;2024-02-14T13:02:47;6.13;;;2.58;;
41572;SDS011;27286;47.870;19.006;2024-02-14T13:05:13;8.52;;;3.15;;
41572;SDS011;27286;47.870;19.006;2024-02-14T13:07:38;7.00;;;2.92;;
41572;SDS011;27286;47.870;19.006;2024-02-14T13:10:04;7.65;;;3.88;;
41572;SDS011;27286;47.870;19.006;2024-02-14T13:12:30;6.70;;;3.00;;
41572;SDS011;27286;47.870;19.006;2024-02-14T13:14:55;8.48;;;3.45;;
41572;SDS011;27286;47.870;19.006;2024-02-14T13:17:21;5.55;;;3.22;;
41572;SDS011;27286;47.870;19.006;2024-02-14T13:19:47;5.65;;;3.22;;
41572;SDS011;27286;47.870;19.006;2024-02-14T13:22:14;8.20;;;2.47;;
41572;SDS011;27286;47.870;19.006;2024-02-14T13:24:40;16.02;;;4.70;;
41572;SDS011;27286;47.870;19.006;2024-02-14T13:27:05;6.93;;;3.60;;
41572;SDS011;27286;47.870;19.006;2024-02-14T13:29:31;7.07;;;3.35;;
41572;SDS011;27286;47.870;19.006;2024-02-14T13:31:56;5.18;;;2.78;;
41572;SDS011;27286;47.870;19.006;2024-02-14T13:34:22;6.13;;;2.70;;
41572;SDS011;27286;47.870;19.006;2024-02-14T13:36:47;13.57;;;3.15;;
41572;SDS011;27286;47.870;19.006;2024-02-14T13:39:13;11.00;;;3.65;;
41572;SDS011;27286;47.870;19.006;2024-02-14T13:41:39;8.63;;;3.58;;
41572;SDS011;27286;47.870;19.006;2024-02-14T13:44:07;9.70;;;5.03;;
41572;SDS011;27286;47.870;19.006;2024-02-14T13:46:33;13.48;;;5.25;;
41572;SDS011;27286;47.870;19.006;2024-02-14T13:48:59;7.90;;;4.80;;
41572;SDS011;27286;47.870;19.006;2024-02-14T13:51:25;9.27;;;4.95;;
41572;SDS011;27286;47.870;19.006;2024-02-14T13:53:52;13.05;;;5.43;;
41572;SDS011;27286;47.870;19.006;2024-02-14T13:56:17;6.18;;;3.22;;
41572;SDS011;27286;47.870;19.006;2024-02-14T13:58:46;13.43;;;4.85;;
41572;SDS011;27286;47.870;19.006;2024-02-14T14:01:12;13.43;;;6.95;;
41572;SDS011;27286;47.870;19.006;2024-02-14T14:03:37;12.45;;;6.63;;
41572;SDS011;27286;47.870;19.006;2024-02-14T14:06:03;22.50;;;10.75;;
41572;SDS011;27286;47.870;19.006;2024-02-14T14:08:30;19.30;;;9.18;;
41572;SDS011;27286;47.870;19.006;2024-02-14T14:10:56;12.95;;;4.82;;
41572;SDS011;27286;47.870;19.006;2024-02-14T14:13:21;19.63;;;4.70;;
41572;SDS011;27286;47.870;19.006;2024-02-14T14:15:47;8.57;;;4.78;;
41572;SDS011;27286;47.870;19.006;2024-02-14T14:18:12;12.35;;;5.43;;
41572;SDS011;27286;47.870;19.006;2024-02-14T14:20:37;17.23;;;6.03;;
41572;SDS011;27286;47.870;19.006;2024-02-14T14:23:03;20.20;;;7.75;;
41572;SDS011;27286;47.870;19.006;2024-02-14T14:25:29;15.93;;;5.55;;